Time;durP1;ratioP1;P1;durP2;ratioP2;P2;SDS_P1;SDS_P2;PMS_P1;PMS_P2;Temp;Humidity;BMP_temperature;BMP_pressure;BME280_temperature;BME280_humidity;BME280_pressure;Samples;Min_cycle;Max_cycle;Signal;HPM_P1;HPM_P2
2022/09/21 00:01:21;;;;;;;21.23;2.75;;;9.10;99.90;;;;;;5081347;28;20375;-77
2022/09/21 00:03:52;;;;;;;24.98;2.85;;;9.10;99.90;;;;;;5079711;28;20076;-77
2022/09/21 00:06:19;;;;;;;27.48;2.40;;;9.10;99.90;;;;;;5067495;28;20040;-77
2022/09/21 00:08:46;;;;;;;11.77;2.00;;;9.00;99.90;;;;;;5086694;28;20052;-77
2022/09/21 00:11:18;;;;;;;6.38;2.15;;;9.00;99.90;;;;;;5080596;28;20036;-77
2022/09/21 00:13:45;;;;;;;9.85;1.90;;;8.90;99.90;;;;;;5075657;28;20041;-76
2022/09/21 00:16:13;;;;;;;4.90;1.83;;;8.90;99.90;;;;;;5083401;28;20032;-76
2022/09/21 00:18:39;;;;;;;3.90;2.00;;;8.90;99.90;;;;;;5081141;28;20044;-77
2022/09/21 00:21:10;;;;;;;5.38;2.42;;;8.80;99.90;;;;;;5059596;28;20036;-77
2022/09/21 00:23:37;;;;;;;3.60;2.15;;;8.80;99.90;;;;;;5061272;28;20066;-76
2022/09/21 00:26:11;;;;;;;;;;;8.80;99.90;;;;;;5060343;28;20045;-77
2022/09/21 00:28:37;;;;;;;12.60;2.60;;;8.80;99.90;;;;;;5057380;28;19920;-77
2022/09/21 00:31:05;;;;;;;3.25;1.90;;;8.80;99.90;;;;;;5082701;28;20482;-77
2022/09/21 00:33:32;;;;;;;2.85;2.00;;;8.80;99.90;;;;;;5076411;28;20122;-76
2022/09/21 00:36:06;;;;;;;2.38;1.80;;;8.80;99.90;;;;;;5084856;28;20036;-77
2022/09/21 00:38:33;;;;;;;5.85;2.00;;;8.80;99.90;;;;;;5080576;28;20036;-76
2022/09/21 00:40:59;;;;;;;5.45;2.00;;;8.80;99.90;;;;;;5045765;28;20485;-77
2022/09/21 00:43:25;;;;;;;5.85;2.00;;;8.80;99.90;;;;;;5083573;28;20036;-77
2022/09/21 00:46:01;;;;;;;2.60;1.85;;;8.80;99.90;;;;;;5061499;28;20036;-77
2022/09/21 00:48:28;;;;;;;3.97;1.60;;;8.80;99.90;;;;;;5069467;28;20041;-76
2022/09/21 00:50:58;;;;;;;3.22;1.95;;;8.70;99.90;;;;;;5063513;28;20032;-76
2022/09/21 00:53:24;;;;;;;2.40;1.60;;;8.60;99.90;;;;;;5082884;28;20055;-76
2022/09/21 00:55:55;;;;;;;6.22;1.50;;;8.60;99.90;;;;;;5075226;28;20036;-77
2022/09/21 00:58:30;;;;;;;11.07;1.70;;;8.60;99.90;;;;;;5077778;28;20113;-76
2022/09/21 01:00:59;;;;;;;3.15;1.80;;;8.60;99.90;;;;;;5074952;28;20032;-76
2022/09/21 01:03:26;;;;;;;3.25;1.60;;;8.50;99.90;;;;;;5075145;28;20464;-76
2022/09/21 01:05:52;;;;;;;4.40;1.80;;;8.60;99.90;;;;;;5076870;28;20488;-76
2022/09/21 01:08:19;;;;;;;2.72;1.90;;;8.60;99.90;;;;;;5078421;28;20029;-76
2022/09/21 01:11:07;;;;;;;3.85;2.17;;;8.50;99.90;;;;;;5058681;28;20041;-76
2022/09/21 01:14:04;;;;;;;5.88;2.20;;;8.50;99.90;;;;;;5075952;28;20033;-76
2022/09/21 01:16:44;;;;;;;5.60;2.10;;;8.50;99.90;;;;;;5085023;28;20382;-76
2022/09/21 01:19:28;;;;;;;5.53;2.15;;;8.40;99.90;;;;;;5085515;28;20031;-77
2022/09/21 01:21:59;;;;;;;5.70;2.28;;;8.50;99.90;;;;;;5081646;28;20040;-77
2022/09/21 01:24:47;;;;;;;3.85;2.13;;;8.50;99.90;;;;;;5075964;28;20423;-77
2022/09/21 01:27:26;;;;;;;4.95;1.95;;;8.50;99.90;;;;;;5075431;28;20137;-76
2022/09/21 01:29:56;;;;;;;3.40;2.22;;;8.40;99.90;;;;;;5051753;28;20038;-76
2022/09/21 01:32:33;;;;;;;4.30;2.15;;;8.50;99.90;;;;;;5052780;28;20042;-76
2022/09/21 01:35:12;;;;;;;12.93;2.13;;;8.40;99.90;;;;;;5076877;28;20043;-76
2022/09/21 01:37:46;;;;;;;7.57;1.80;;;8.40;99.90;;;;;;5077759;28;20477;-77
2022/09/21 01:40:24;;;;;;;3.53;1.98;;;8.40;99.90;;;;;;5068255;28;20046;-76
2022/09/21 01:42:51;;;;;;;7.50;1.52;;;8.40;99.90;;;;;;5072604;28;20052;-76
2022/09/21 01:45:25;;;;;;;2.90;1.67;;;8.40;99.90;;;;;;5064658;28;20044;-77
2022/09/21 01:47:53;;;;;;;5.38;1.92;;;8.40;99.90;;;;;;5062727;28;20070;-77
2022/09/21 01:50:20;;;;;;;3.05;1.75;;;8.40;99.90;;;;;;5074383;28;20044;-77
2022/09/21 01:52:51;;;;;;;2.40;1.50;;;8.40;99.90;;;;;;5051254;28;20113;-77
2022/09/21 01:55:28;;;;;;;3.40;1.80;;;8.30;99.90;;;;;;5067503;28;20038;-76
2022/09/21 01:58:10;;;;;;;1.95;1.60;;;8.30;99.90;;;;;;5071760;28;20456;-76
2022/09/21 02:00:38;;;;;;;3.17;1.80;;;8.20;99.90;;;;;;5047586;28;20113;-77
2022/09/21 02:03:27;;;;;;;3.15;2.30;;;8.20;99.90;;;;;;5074706;28;20562;-77
2022/09/21 02:05:54;;;;;;;6.00;2.38;;;8.20;99.90;;;;;;5052008;28;20494;-77
2022/09/21 02:08:19;;;;;;;5.88;2.30;;;8.20;99.90;;;;;;5062610;28;20052;-76
2022/09/21 02:10:49;;;;;;;4.43;2.33;;;8.20;99.90;;;;;;5074876;28;20057;-76
2022/09/21 02:13:18;;;;;;;4.57;2.33;;;8.20;99.90;;;;;;5078029;28;20099;-76
2022/09/21 02:16:05;;;;;;;4.82;2.38;;;8.20;99.90;;;;;;5067817;28;20082;-76
2022/09/21 02:18:56;;;;;;;3.92;2.17;;;8.20;99.90;;;;;;5056570;28;20061;-76
2022/09/21 02:21:42;;;;;;;3.53;2.33;;;8.20;99.90;;;;;;5078435;28;20038;-76
2022/09/21 02:24:20;;;;;;;4.32;2.60;;;8.20;99.90;;;;;;5067455;28;20046;-76
2022/09/21 02:27:09;;;;;;;7.50;2.50;;;8.20;99.90;;;;;;5072988;28;20071;-76
2022/09/21 02:29:48;;;;;;;6.25;2.55;;;8.20;99.90;;;;;;5072925;28;20614;-76
2022/09/21 02:32:39;;;;;;;7.50;3.03;;;8.20;99.90;;;;;;5065169;28;20433;-75
2022/09/21 02:35:16;;;;;;;3.78;2.63;;;8.20;99.90;;;;;;5065121;28;20041;-76
2022/09/21 02:37:47;;;;;;;6.93;2.65;;;8.20;99.90;;;;;;5070799;28;20113;-76
2022/09/21 02:40:20;;;;;;;3.88;2.80;;;8.20;99.90;;;;;;5048715;28;20766;-75
2022/09/21 02:42:49;;;;;;;5.43;2.85;;;8.20;99.90;;;;;;5070401;28;20042;-75
2022/09/21 02:45:21;;;;;;;4.45;2.40;;;8.10;99.90;;;;;;5085039;28;21549;-75
2022/09/21 02:47:53;;;;;;;5.78;2.30;;;8.20;99.90;;;;;;5041177;28;20038;-76
2022/09/21 02:50:36;;;;;;;10.13;3.53;;;8.10;99.90;;;;;;5056536;28;20045;-77
2022/09/21 02:53:04;;;;;;;4.68;2.72;;;8.10;99.90;;;;;;5066060;28;20048;-76
2022/09/21 02:55:32;;;;;;;5.22;2.47;;;8.10;99.90;;;;;;5057186;28;20039;-76
2022/09/21 02:58:01;;;;;;;3.10;2.30;;;8.10;99.90;;;;;;5077775;28;20040;-76
2022/09/21 03:00:27;;;;;;;8.60;2.63;;;8.00;99.90;;;;;;5066607;28;20049;-76
2022/09/21 03:02:53;;;;;;;5.53;2.30;;;8.00;99.90;;;;;;5045793;28;20042;-76
2022/09/21 03:05:19;;;;;;;3.25;2.30;;;8.00;99.90;;;;;;5046657;28;20038;-75
2022/09/21 03:07:45;;;;;;;3.00;2.22;;;8.00;99.90;;;;;;5064392;28;20045;-76
2022/09/21 03:10:10;;;;;;;4.57;2.03;;;7.90;99.90;;;;;;5066140;28;20125;-76
2022/09/21 03:12:37;;;;;;;4.90;2.23;;;7.90;99.90;;;;;;5071258;28;20052;-76
2022/09/21 03:15:03;;;;;;;2.55;1.73;;;7.90;99.90;;;;;;5047641;28;20697;-77
2022/09/21 03:17:29;;;;;;;3.55;1.80;;;7.90;99.90;;;;;;5082299;28;20362;-76
2022/09/21 03:19:55;;;;;;;4.28;1.92;;;7.80;99.90;;;;;;5061244;28;20552;-76
2022/09/21 03:22:24;;;;;;;4.03;1.90;;;7.80;99.90;;;;;;5077659;28;20069;-76
2022/09/21 03:24:50;;;;;;;4.22;1.85;;;7.80;99.90;;;;;;5065835;28;20060;-76
2022/09/21 03:27:19;;;;;;;4.63;1.90;;;7.80;99.90;;;;;;5077892;28;20158;-76
2022/09/21 03:29:45;;;;;;;4.50;1.85;;;7.70;99.90;;;;;;5065885;28;20505;-76
2022/09/21 03:32:12;;;;;;;3.72;1.95;;;7.70;99.90;;;;;;5070732;28;20038;-76
2022/09/21 03:34:38;;;;;;;3.00;1.58;;;7.70;99.90;;;;;;5051951;28;20107;-76
2022/09/21 03:37:06;;;;;;;3.00;1.70;;;7.60;99.90;;;;;;5074392;28;20030;-76
2022/09/21 03:39:31;;;;;;;4.18;2.08;;;7.60;99.90;;;;;;5065691;28;20079;-76
2022/09/21 03:41:57;;;;;;;4.10;1.80;;;8.10;99.90;;;;;;5071222;28;20044;-76
2022/09/21 03:44:24;;;;;;;5.18;2.13;;;7.60;99.90;;;;;;5073136;28;20045;-76
2022/09/21 03:46:50;;;;;;;3.38;1.90;;;7.50;99.90;;;;;;5056475;28;20406;-76
2022/09/21 03:49:16;;;;;;;13.23;1.90;;;7.60;99.90;;;;;;5065890;28;20467;-76
2022/09/21 03:51:42;;;;;;;1.67;1.40;;;7.50;99.90;;;;;;5070522;28;20053;-77
2022/09/21 03:54:09;;;;;;;2.05;1.25;;;7.50;99.90;;;;;;5074239;28;20056;-77
2022/09/21 03:56:34;;;;;;;1.50;1.10;;;7.50;99.90;;;;;;5069681;28;20042;-76
2022/09/21 03:59:00;;;;;;;1.52;1.20;;;7.40;99.90;;;;;;5059661;28;20368;-76
2022/09/21 04:01:26;;;;;;;2.88;0.95;;;7.40;99.90;;;;;;5038002;28;20152;-76
2022/09/21 04:03:51;;;;;;;1.27;0.97;;;7.40;99.90;;;;;;5069608;28;20095;-76
2022/09/21 04:06:18;;;;;;;1.17;1.00;;;7.40;99.90;;;;;;5074822;28;20038;-76
2022/09/21 04:08:43;;;;;;;1.60;1.05;;;7.30;99.90;;;;;;5068736;28;20053;-76
2022/09/21 04:11:11;;;;;;;3.50;1.13;;;7.70;99.90;;;;;;5067271;28;20511;-76
2022/09/21 04:13:37;;;;;;;11.82;1.58;;;7.30;99.90;;;;;;5078035;28;20040;-77
2022/09/21 04:16:02;;;;;;;2.13;0.98;;;7.60;99.90;;;;;;5075931;28;20038;-76
2022/09/21 04:18:28;;;;;;;0.80;0.70;;;7.20;99.90;;;;;;5061764;28;20088;-77
2022/09/21 04:20:54;;;;;;;1.10;0.87;;;7.20;99.90;;;;;;5081142;28;20090;-79
2022/09/21 04:23:20;;;;;;;0.70;0.70;;;7.10;99.90;;;;;;5068871;28;20034;-77
2022/09/21 04:25:50;;;;;;;1.60;0.95;;;7.10;99.90;;;;;;5058284;28;20293;-77
2022/09/21 04:28:16;;;;;;;0.73;0.65;;;7.10;99.90;;;;;;5062408;28;20070;-76
2022/09/21 04:30:42;;;;;;;0.70;0.70;;;7.30;99.90;;;;;;5065005;28;20034;-76
2022/09/21 04:33:07;;;;;;;1.10;0.70;;;7.00;99.90;;;;;;5065281;28;20053;-76
2022/09/21 04:35:33;;;;;;;3.90;1.00;;;7.00;99.90;;;;;;5071034;28;20309;-76
2022/09/21 04:37:59;;;;;;;10.87;1.17;;;7.00;99.90;;;;;;5079322;28;20050;-76
2022/09/21 04:40:25;;;;;;;4.13;1.13;;;7.00;99.90;;;;;;5074571;28;20030;-76
2022/09/21 04:42:54;;;;;;;6.07;1.00;;;7.00;99.90;;;;;;5068945;28;20079;-77
2022/09/21 04:45:21;;;;;;;0.82;0.82;;;7.00;99.90;;;;;;5054070;28;20056;-77
2022/09/21 04:47:47;;;;;;;1.88;0.90;;;7.00;99.90;;;;;;5059510;28;20048;-76
2022/09/21 04:50:14;;;;;;;1.10;1.00;;;7.00;99.90;;;;;;5068041;28;20403;-77
2022/09/21 04:52:39;;;;;;;;;;;6.90;99.90;;;;;;5079772;28;20057;-77
2022/09/21 04:55:06;;;;;;;1.15;0.90;;;6.90;99.90;;;;;;5072047;28;19921;-76
2022/09/21 04:57:34;;;;;;;8.90;1.17;;;6.90;99.90;;;;;;5082083;28;20481;-77
2022/09/21 05:00:00;;;;;;;1.83;0.90;;;6.90;99.90;;;;;;5070135;28;20046;-77
2022/09/21 05:02:26;;;;;;;3.47;1.02;;;6.90;99.90;;;;;;5068262;28;20043;-77
2022/09/21 05:04:52;;;;;;;1.53;0.90;;;6.80;99.90;;;;;;5064338;28;20056;-77
2022/09/21 05:07:17;;;;;;;1.13;0.90;;;6.70;99.90;;;;;;5061004;28;20466;-76
2022/09/21 05:10:01;;;;;;;1.60;0.90;;;6.90;99.90;;;;;;5065358;28;20041;-76
2022/09/21 05:12:27;;;;;;;1.25;0.80;;;6.70;99.90;;;;;;5075325;28;20046;-77
2022/09/21 05:14:54;;;;;;;1.63;0.90;;;6.70;99.90;;;;;;5084242;28;20549;-76
2022/09/21 05:17:21;;;;;;;1.33;1.00;;;6.70;99.90;;;;;;5058066;28;20042;-76
2022/09/21 05:19:51;;;;;;;3.22;1.20;;;6.70;99.90;;;;;;5057827;28;20041;-76
2022/09/21 05:22:17;;;;;;;3.15;1.13;;;6.70;99.90;;;;;;5062495;28;20526;-77
2022/09/21 05:24:43;;;;;;;;;;;6.70;99.90;;;;;;5049116;28;20064;-77
2022/09/21 05:27:09;;;;;;;1.60;0.95;;;6.70;99.90;;;;;;5071148;28;19918;-77
2022/09/21 05:29:34;;;;;;;1.10;0.95;;;6.70;99.90;;;;;;5059926;28;20040;-77
2022/09/21 05:32:16;;;;;;;1.35;0.95;;;6.70;99.90;;;;;;5073779;28;20096;-77
2022/09/21 05:34:50;;;;;;;2.72;0.93;;;6.70;99.90;;;;;;5060933;28;20046;-77
2022/09/21 05:37:46;;;;;;;1.75;0.90;;;6.70;99.90;;;;;;5077188;28;20040;-77
2022/09/21 05:40:13;;;;;;;1.50;0.80;;;6.70;99.90;;;;;;5046469;28;20038;-76
2022/09/21 05:42:39;;;;;;;4.65;1.10;;;6.80;99.90;;;;;;5054679;28;20045;-77
2022/09/21 05:45:05;;;;;;;2.13;1.02;;;6.80;99.90;;;;;;5066360;28;20038;-76
2022/09/21 05:47:38;;;;;;;;;;;6.80;99.90;;;;;;5076496;28;20043;-76
2022/09/21 05:50:18;;;;;;;4.93;1.55;;;6.80;99.90;;;;;;5054220;28;19918;-77
2022/09/21 05:53:09;;;;;;;113.78;7.40;;;6.90;99.90;;;;;;5063347;28;20042;-77
2022/09/21 05:55:59;;;;;;;3.63;1.30;;;6.90;99.90;;;;;;5041296;28;20033;-76
2022/09/21 05:58:44;;;;;;;2.60;1.00;;;6.90;99.90;;;;;;5075521;28;20507;-77
2022/09/21 06:01:37;;;;;;;1.50;1.30;;;7.00;99.90;;;;;;5059270;28;20060;-76
2022/09/21 06:04:03;;;;;;;13.55;1.90;;;7.00;99.90;;;;;;5080479;28;20437;-77
2022/09/21 06:06:29;;;;;;;5.97;1.63;;;7.00;99.90;;;;;;5026501;28;20075;-76
2022/09/21 06:08:54;;;;;;;2.23;1.93;;;7.10;99.90;;;;;;5076806;28;20038;-76
2022/09/21 06:11:20;;;;;;;2.50;1.73;;;7.20;99.90;;;;;;5076782;28;20286;-76
2022/09/21 06:13:46;;;;;;;2.72;1.90;;;7.30;99.90;;;;;;5050112;28;20444;-76
2022/09/21 06:16:12;;;;;;;2.60;2.10;;;7.40;99.90;;;;;;5027824;28;20088;-76
2022/09/21 06:18:39;;;;;;;2.70;1.85;;;7.40;99.90;;;;;;5072784;28;20395;-76
2022/09/21 06:21:06;;;;;;;8.75;2.67;;;7.60;99.90;;;;;;5078397;28;20549;-76
2022/09/21 06:23:32;;;;;;;4.38;2.30;;;7.70;99.90;;;;;;5070065;28;20156;-76
2022/09/21 06:25:57;;;;;;;3.72;2.33;;;7.80;99.90;;;;;;5057112;28;20137;-76
2022/09/21 06:28:23;;;;;;;4.03;2.50;;;7.80;99.90;;;;;;5060579;28;20058;-76
2022/09/21 06:30:53;;;;;;;2.70;2.30;;;8.40;99.90;;;;;;5049346;28;20076;-76
2022/09/21 06:33:20;;;;;;;3.22;2.40;;;8.20;99.90;;;;;;5068186;28;20041;-76
2022/09/21 06:35:53;;;;;;;4.43;2.50;;;8.30;99.90;;;;;;5067929;28;20475;-76
2022/09/21 06:38:20;;;;;;;5.75;2.83;;;8.50;99.90;;;;;;5067412;28;20046;-75
2022/09/21 06:40:45;;;;;;;6.15;2.40;;;8.60;99.90;;;;;;5058776;28;20504;-76
2022/09/21 06:43:11;;;;;;;5.87;2.67;;;8.70;99.90;;;;;;5065283;28;20043;-77
2022/09/21 06:45:37;;;;;;;3.47;2.43;;;8.80;99.90;;;;;;5068587;28;20293;-76
2022/09/21 06:48:02;;;;;;;4.80;2.97;;;9.10;99.90;;;;;;5067996;28;20044;-76
2022/09/21 06:50:28;;;;;;;3.25;2.60;;;9.30;99.90;;;;;;5067157;28;20028;-77
2022/09/21 06:52:54;;;;;;;3.85;2.75;;;9.50;99.90;;;;;;5076498;28;20042;-77
2022/09/21 06:55:22;;;;;;;6.43;2.70;;;9.60;99.90;;;;;;5055243;28;20360;-76
2022/09/21 06:57:50;;;;;;;6.13;3.17;;;9.80;99.90;;;;;;5069444;28;20448;-76
2022/09/21 07:00:16;;;;;;;7.38;2.70;;;10.00;99.90;;;;;;5056197;28;20108;-77
2022/09/21 07:02:43;;;;;;;7.27;2.93;;;10.10;99.90;;;;;;5065863;28;20395;-76
2022/09/21 07:05:09;;;;;;;7.18;2.53;;;10.30;99.90;;;;;;5074230;28;20354;-76
2022/09/21 07:07:35;;;;;;;4.82;2.67;;;10.50;99.90;;;;;;5057355;28;20050;-76
2022/09/21 07:10:01;;;;;;;5.00;2.55;;;10.70;99.90;;;;;;5068988;28;20125;-77
2022/09/21 07:12:33;;;;;;;8.18;3.35;;;10.90;99.90;;;;;;5054613;28;20387;-76
2022/09/21 07:14:59;;;;;;;5.07;2.47;;;11.10;99.90;;;;;;5052176;28;20066;-77
2022/09/21 07:17:24;;;;;;;8.45;3.25;;;11.30;99.90;;;;;;5070402;28;20092;-77
2022/09/21 07:19:50;;;;;;;2.60;2.10;;;11.90;99.90;;;;;;5077687;28;20483;-78
2022/09/21 07:22:16;;;;;;;7.40;2.43;;;12.70;99.90;;;;;;5039713;28;20365;-78
2022/09/21 07:24:41;;;;;;;5.90;2.07;;;13.50;99.90;;;;;;5035669;28;20066;-78
2022/09/21 07:27:07;;;;;;;6.20;2.00;;;14.40;99.90;;;;;;5067476;28;20290;-78
2022/09/21 07:29:33;;;;;;;3.97;1.73;;;15.10;99.90;;;;;;5057702;28;20312;-78
2022/09/21 07:31:58;;;;;;;3.35;1.90;;;15.50;99.90;;;;;;5041070;28;20047;-78
2022/09/21 07:34:24;;;;;;;6.18;1.73;;;16.10;99.90;;;;;;5071214;28;20532;-79
2022/09/21 07:36:50;;;;;;;4.75;1.80;;;16.60;99.90;;;;;;5059506;28;20084;-78
2022/09/21 07:39:16;;;;;;;4.53;1.77;;;17.10;99.90;;;;;;5061987;28;20364;-78
2022/09/21 07:41:41;;;;;;;4.45;1.75;;;17.40;99.90;;;;;;5076226;28;20117;-78
2022/09/21 07:44:07;;;;;;;3.85;1.50;;;17.80;99.90;;;;;;5069046;28;20038;-78
2022/09/21 07:46:33;;;;;;;5.18;1.45;;;17.90;99.90;;;;;;5068623;28;20049;-78
2022/09/21 07:48:58;;;;;;;4.53;1.42;;;18.30;99.90;;;;;;5068592;28;20038;-78
2022/09/21 07:51:24;;;;;;;5.18;1.33;;;18.70;99.90;;;;;;5084065;28;20474;-78
2022/09/21 07:53:57;;;;;;;4.28;1.40;;;19.10;99.90;;;;;;5071817;28;20050;-78
2022/09/21 07:56:24;;;;;;;3.15;1.15;;;19.50;99.90;;;;;;5076217;28;20497;-78
2022/09/21 07:59:04;;;;;;;2.92;0.90;;;19.90;99.90;;;;;;5054609;28;20035;-79
2022/09/21 08:01:35;;;;;;;5.18;1.17;;;20.40;99.90;;;;;;5064822;28;20034;-79
2022/09/21 08:04:01;;;;;;;6.00;1.38;;;20.40;99.90;;;;;;5071767;28;20064;-79
2022/09/21 08:06:29;;;;;;;4.20;0.82;;;20.60;99.90;;;;;;5069662;28;20476;-79
2022/09/21 08:08:55;;;;;;;3.20;0.90;;;20.80;99.90;;;;;;5078324;28;20072;-80
2022/09/21 08:11:22;;;;;;;4.53;0.93;;;21.10;99.90;;;;;;5083443;28;20101;-80
2022/09/21 08:13:51;;;;;;;4.03;0.77;;;21.00;99.90;;;;;;5069010;28;20142;-78
2022/09/21 08:16:17;;;;;;;4.07;0.73;;;21.50;99.90;;;;;;5069250;28;20070;-79
2022/09/21 08:18:43;;;;;;;3.78;0.70;;;21.70;99.90;;;;;;5071293;28;20073;-79
2022/09/21 08:21:09;;;;;;;;;;;21.60;99.90;;;;;;5079407;28;20042;-79
2022/09/21 08:23:39;;;;;;;5.60;1.45;;;21.80;99.90;;;;;;5061339;28;19925;-79
2022/09/21 08:26:06;;;;;;;3.50;0.80;;;22.20;99.90;;;;;;5081385;28;20055;-79
2022/09/21 08:28:34;;;;;;;4.45;0.70;;;22.70;99.90;;;;;;5062614;28;20369;-79
2022/09/21 08:31:00;;;;;;;5.10;1.05;;;22.70;99.90;;;;;;5076243;28;20049;-78
2022/09/21 08:33:26;;;;;;;4.85;0.85;;;23.00;99.90;;;;;;5077343;28;20118;-78
2022/09/21 08:35:53;;;;;;;;;;;22.90;99.90;;;;;;5075812;28;20133;-79
2022/09/21 08:38:19;;;;;;;3.83;0.70;;;23.20;99.30;;;;;;5067243;28;19921;-78
2022/09/21 08:40:49;;;;;;;3.80;0.88;;;23.40;98.80;;;;;;5053035;28;20273;-79
2022/09/21 08:43:34;;;;;;;2.60;0.63;;;23.70;98.80;;;;;;5062737;28;20050;-79
2022/09/21 08:46:04;;;;;;;4.20;0.70;;;24.10;98.20;;;;;;5082357;28;20053;-79
2022/09/21 08:48:34;;;;;;;5.90;0.75;;;24.10;98.00;;;;;;5068709;28;20050;-79
2022/09/21 08:51:04;;;;;;;3.35;0.52;;;24.30;97.60;;;;;;5054855;28;20046;-78
2022/09/21 08:53:47;;;;;;;3.25;0.50;;;24.70;97.40;;;;;;5061254;28;20046;-79
2022/09/21 08:56:14;;;;;;;4.22;0.70;;;24.60;96.70;;;;;;5071578;28;20070;-79
2022/09/21 08:58:41;;;;;;;4.70;0.63;;;24.80;96.50;;;;;;5080143;28;20106;-78
2022/09/21 09:01:19;;;;;;;5.15;0.60;;;25.10;97.20;;;;;;5050929;28;20098;-79
2022/09/21 09:04:19;;;;;;;4.45;0.40;;;25.20;95.80;;;;;;5069930;28;20430;-78
2022/09/21 09:07:06;;;;;;;4.53;0.40;;;25.20;95.20;;;;;;5064570;28;20038;-78
2022/09/21 09:10:02;;;;;;;3.70;0.40;;;25.40;94.40;;;;;;5075082;28;20040;-78
2022/09/21 09:13:14;;;;;;;3.45;0.70;;;25.60;93.40;;;;;;5066630;28;20045;-78
2022/09/21 09:15:59;;;;;;;4.80;0.68;;;25.30;94.20;;;;;;5009369;28;20492;-77
2022/09/21 09:18:55;;;;;;;4.85;0.80;;;25.10;94.40;;;;;;5060309;28;20098;-77
2022/09/21 09:21:36;;;;;;;4.65;0.43;;;25.60;94.00;;;;;;5062026;28;20045;-77
2022/09/21 09:24:12;;;;;;;3.63;0.60;;;25.80;94.00;;;;;;5065492;28;20473;-77
2022/09/21 09:26:52;;;;;;;4.87;0.60;;;26.30;94.40;;;;;;5072211;28;20048;-77
2022/09/21 09:29:28;;;;;;;4.40;0.55;;;26.30;93.10;;;;;;5047209;28;20046;-78
2022/09/21 09:31:56;;;;;;;2.45;0.32;;;27.00;93.10;;;;;;5071649;28;20045;-77
2022/09/21 09:34:37;;;;;;;6.35;0.52;;;26.40;92.60;;;;;;5074749;28;20056;-77
2022/09/21 09:37:13;;;;;;;3.00;0.40;;;26.50;92.00;;;;;;5073569;28;20041;-77
2022/09/21 09:39:41;;;;;;;3.45;0.55;;;26.50;92.00;;;;;;5061980;28;20391;-79
2022/09/21 09:42:41;;;;;;;5.05;0.38;;;26.60;91.80;;;;;;5045986;28;20121;-79
2022/09/21 09:45:28;;;;;;;2.47;0.40;;;26.80;92.00;;;;;;5061804;28;20046;-78
2022/09/21 09:47:57;;;;;;;;;;;27.00;91.30;;;;;;5053089;28;20052;-79
2022/09/21 09:50:29;;;;;;;4.00;0.63;;;27.00;91.20;;;;;;5076635;28;19996;-78
2022/09/21 09:53:03;;;;;;;4.15;0.57;;;27.30;91.30;;;;;;5072355;28;20044;-78
2022/09/21 09:55:37;;;;;;;3.92;0.50;;;27.60;91.00;;;;;;5076684;28;20044;-78
2022/09/21 09:58:03;;;;;;;2.67;0.32;;;27.40;90.40;;;;;;5069852;28;20486;-79
2022/09/21 10:00:29;;;;;;;3.05;0.57;;;27.20;90.10;;;;;;5062205;28;20028;-79
2022/09/21 10:02:57;;;;;;;2.90;0.30;;;27.30;90.40;;;;;;5066970;28;20038;-79
2022/09/21 10:05:29;;;;;;;3.72;0.43;;;26.80;90.00;;;;;;5067511;28;20034;-78
2022/09/21 10:07:55;;;;;;;3.30;0.30;;;27.10;90.50;;;;;;5066196;28;20418;-79
2022/09/21 10:10:31;;;;;;;4.57;0.60;;;27.20;89.70;;;;;;5060277;28;20042;-79
2022/09/21 10:13:21;;;;;;;2.58;0.38;;;27.30;89.30;;;;;;5064462;28;20046;-79
2022/09/21 10:15:57;;;;;;;4.15;0.50;;;27.50;88.80;;;;;;5068646;28;20044;-79
2022/09/21 10:18:49;;;;;;;4.53;0.67;;;27.90;88.90;;;;;;5046424;28;20433;-79
2022/09/21 10:21:33;;;;;;;3.38;0.50;;;27.30;88.00;;;;;;5062148;28;20038;-78
2022/09/21 10:24:05;;;;;;;2.00;0.40;;;26.60;89.00;;;;;;5055916;28;20042;-78
2022/09/21 10:26:35;;;;;;;2.58;0.50;;;26.40;90.30;;;;;;5071010;28;20078;-78
2022/09/21 10:29:21;;;;;;;6.38;0.50;;;26.70;88.70;;;;;;5077834;28;20117;-78
2022/09/21 10:32:02;;;;;;;2.28;0.43;;;27.10;90.10;;;;;;5052449;28;20457;-78
2022/09/21 10:34:30;;;;;;;3.85;0.30;;;27.50;89.40;;;;;;5066251;28;20046;-78
2022/09/21 10:36:58;;;;;;;2.67;0.47;;;28.00;88.70;;;;;;5062824;28;20037;-79
2022/09/21 10:39:28;;;;;;;3.53;0.45;;;28.30;86.70;;;;;;5059639;28;20403;-83
2022/09/21 10:42:06;;;;;;;1.92;0.40;;;28.10;87.00;;;;;;5066838;28;20122;-82
2022/09/21 10:44:44;;;;;;;2.92;0.40;;;28.00;86.40;;;;;;5065048;28;20049;-85
2022/09/21 10:47:37;;;;;;;2.88;0.40;;;28.00;86.80;;;;;;5073886;28;20052;-85
2022/09/21 10:50:25;;;;;;;3.50;0.50;;;28.60;86.10;;;;;;5059769;28;20098;-85
2022/09/21 10:52:58;;;;;;;4.53;0.50;;;28.60;85.90;;;;;;5077415;28;20390;-85
2022/09/21 10:55:24;;;;;;;2.83;0.50;;;29.20;86.90;;;;;;5055224;28;20103;-83
2022/09/21 10:57:51;;;;;;;1.95;0.40;;;29.30;86.50;;;;;;5067971;28;20052;-87
2022/09/21 11:00:20;;;;;;;3.03;0.40;;;29.50;86.60;;;;;;5053283;28;20521;-85
2022/09/21 11:02:47;;;;;;;1.65;0.30;;;29.50;85.70;;;;;;5067425;28;20128;-85
2022/09/21 11:05:24;;;;;;;2.72;0.50;;;29.80;85.20;;;;;;5039002;28;20045;-86
2022/09/21 11:08:17;;;;;;;3.35;0.38;;;29.70;84.10;;;;;;5064700;28;20049;-86
2022/09/21 11:11:03;;;;;;;4.40;0.57;;;29.80;83.20;;;;;;5067133;28;20042;-87
2022/09/21 11:13:38;;;;;;;2.97;0.40;;;30.00;85.00;;;;;;5048786;28;20084;-88
2022/09/21 11:16:20;;;;;;;2.58;0.65;;;30.10;83.90;;;;;;5049470;28;20081;-87
2022/09/21 11:19:33;;;;;;;2.67;0.40;;;30.00;83.20;;;;;;5055108;28;20524;-87
2022/09/21 11:22:21;;;;;;;2.30;0.28;;;29.80;83.10;;;;;;4980747;28;20054;-85
2022/09/21 11:25:13;;;;;;;2.45;0.40;;;29.70;82.60;;;;;;5074751;28;20058;-83
2022/09/21 11:27:42;;;;;;;2.35;0.40;;;29.80;82.00;;;;;;5048910;28;20042;-87
2022/09/21 11:30:14;;;;;;;3.22;0.40;;;29.70;82.10;;;;;;5064355;28;20117;-84
2022/09/21 11:32:45;;;;;;;2.45;0.30;;;30.10;82.60;;;;;;5070129;28;20054;-83
2022/09/21 11:35:26;;;;;;;1.02;0.30;;;29.80;79.90;;;;;;5050933;28;20041;-84
2022/09/21 11:38:20;;;;;;;2.20;0.25;;;30.00;81.30;;;;;;5079752;28;20063;-83
2022/09/21 11:41:05;;;;;;;3.83;0.40;;;29.70;79.20;;;;;;5064558;28;21381;-83
2022/09/21 11:43:48;;;;;;;2.22;0.30;;;29.80;79.60;;;;;;5070183;28;20045;-82
2022/09/21 11:46:34;;;;;;;2.63;0.38;;;30.30;80.70;;;;;;5066219;28;20394;-83
2022/09/21 11:49:02;;;;;;;3.70;0.40;;;30.40;80.40;;;;;;5065630;28;20195;-82
2022/09/21 11:51:58;;;;;;;3.05;0.30;;;30.20;78.40;;;;;;5053832;28;20103;-83
2022/09/21 11:54:30;;;;;;;2.38;0.38;;;30.40;78.80;;;;;;5069212;28;20042;-84
2022/09/21 11:57:23;;;;;;;1.17;0.20;;;30.50;77.80;;;;;;5079691;28;20056;-84
2022/09/21 12:00:01;;;;;;;1.50;0.20;;;30.60;78.20;;;;;;5078476;28;20041;-82
2022/09/21 12:02:45;;;;;;;3.17;0.35;;;30.80;79.10;;;;;;5073770;28;20041;-84
2022/09/21 12:05:39;;;;;;;4.50;0.40;;;30.90;77.90;;;;;;5071632;28;20050;-84
2022/09/21 12:08:42;;;;;;;1.90;0.20;;;31.30;77.80;;;;;;5049068;28;20394;-83
2022/09/21 12:11:29;;;;;;;3.85;0.30;;;31.90;78.40;;;;;;5068136;28;20444;-84
2022/09/21 12:13:54;;;;;;;3.35;0.40;;;31.80;77.10;;;;;;5064160;28;20448;-83
2022/09/21 12:16:26;;;;;;;3.00;0.40;;;31.30;75.60;;;;;;5069800;28;20123;-80
2022/09/21 12:19:04;;;;;;;2.70;0.32;;;31.60;79.00;;;;;;5059609;28;20050;-82
2022/09/21 12:21:35;;;;;;;2.60;0.30;;;31.60;77.90;;;;;;5074633;28;20049;-83
2022/09/21 12:24:20;;;;;;;2.88;0.25;;;31.30;77.60;;;;;;5076252;28;20038;-83
2022/09/21 12:26:54;;;;;;;2.42;0.30;;;31.40;78.00;;;;;;5046654;28;20450;-83
2022/09/21 12:29:46;;;;;;;2.20;0.30;;;31.50;76.60;;;;;;5059832;28;20040;-83
2022/09/21 12:32:46;;;;;;;3.28;0.40;;;31.30;77.50;;;;;;5066788;28;20042;-83
2022/09/21 12:35:22;;;;;;;2.80;0.60;;;30.90;78.60;;;;;;5081632;28;20042;-78
2022/09/21 12:37:50;;;;;;;;;;;31.30;77.40;;;;;;5060438;28;20042;-78
2022/09/21 12:40:42;;;;;;;3.03;0.30;;;31.50;77.60;;;;;;5068958;28;20444;-78
2022/09/21 12:43:26;;;;;;;2.35;0.30;;;31.50;77.70;;;;;;5073631;28;20076;-78
2022/09/21 12:46:01;;;;;;;1.88;0.30;;;31.40;78.20;;;;;;5072956;28;20069;-84
2022/09/21 12:48:38;;;;;;;2.03;0.47;;;31.50;78.10;;;;;;5057554;28;20049;-84
2022/09/21 12:51:12;;;;;;;1.33;0.30;;;31.30;77.70;;;;;;5054878;28;20038;-84
2022/09/21 12:53:44;;;;;;;3.05;0.32;;;31.30;78.00;;;;;;5057994;28;20046;-87
2022/09/21 12:56:31;;;;;;;3.45;0.40;;;31.30;77.90;;;;;;5080128;28;20042;-87
2022/09/21 12:59:21;;;;;;;2.78;0.40;;;30.90;76.70;;;;;;5049185;28;20148;-84
2022/09/21 13:01:57;;;;;;;2.35;0.28;;;31.20;77.20;;;;;;5058690;28;20087;-87
2022/09/21 13:04:49;;;;;;;1.88;0.25;;;30.40;77.70;;;;;;5055330;28;20038;-86
2022/09/21 13:07:50;;;;;;;1.92;0.30;;;30.90;76.90;;;;;;5067687;28;20094;-84
2022/09/21 13:10:18;;;;;;;1.52;0.38;;;30.70;76.90;;;;;;5067134;28;20411;-83
2022/09/21 13:12:46;;;;;;;2.05;0.32;;;30.90;77.80;;;;;;5054469;28;20042;-81
2022/09/21 13:15:20;;;;;;;1.13;0.30;;;30.90;77.30;;;;;;5068874;28;20046;-82
2022/09/21 13:18:01;;;;;;;2.30;0.30;;;30.70;77.70;;;;;;5063943;28;20042;-77
2022/09/21 13:20:33;;;;;;;2.05;0.30;;;30.40;76.20;;;;;;5063147;28;20119;-77
2022/09/21 13:23:01;;;;;;;4.03;0.50;;;29.60;77.70;;;;;;5074476;28;20125;-77